sensor_id;sensor_type;location;lat;lon;timestamp;P1;durP1;ratioP1;P2;durP2;ratioP2
17261;SDS011;9873;52.236;21.002;2024-01-30T00:06:26;37.27;;;17.37;;
17261;SDS011;9873;52.236;21.002;2024-01-30T00:16:32;33.93;;;19.77;;
17261;SDS011;9873;52.236;21.002;2024-01-30T00:26:34;27.47;;;12.20;;
17261;SDS011;9873;52.236;21.002;2024-01-30T00:36:37;33.57;;;18.73;;
17261;SDS011;9873;52.236;21.002;2024-01-30T00:46:39;30.60;;;17.40;;
17261;SDS011;9873;52.236;21.002;2024-01-30T00:56:44;30.50;;;14.63;;
17261;SDS011;9873;52.236;21.002;2024-01-30T01:06:46;24.27;;;13.20;;
17261;SDS011;9873;52.236;21.002;2024-01-30T01:16:53;26.63;;;12.27;;
17261;SDS011;9873;52.236;21.002;2024-01-30T01:27:01;28.63;;;13.53;;
17261;SDS011;9873;52.236;21.002;2024-01-30T01:37:06;26.97;;;13.87;;
17261;SDS011;9873;52.236;21.002;2024-01-30T01:47:12;26.50;;;13.23;;
17261;SDS011;9873;52.236;21.002;2024-01-30T01:57:14;25.53;;;12.87;;
17261;SDS011;9873;52.236;21.002;2024-01-30T02:07:20;29.47;;;13.93;;
17261;SDS011;9873;52.236;21.002;2024-01-30T02:17:23;32.83;;;14.97;;
17261;SDS011;9873;52.236;21.002;2024-01-30T02:27:27;28.80;;;16.80;;
17261;SDS011;9873;52.236;21.002;2024-01-30T02:37:32;30.23;;;14.97;;
17261;SDS011;9873;52.236;21.002;2024-01-30T02:47:35;26.83;;;13.97;;
17261;SDS011;9873;52.236;21.002;2024-01-30T02:57:38;25.57;;;12.77;;
17261;SDS011;9873;52.236;21.002;2024-01-30T03:07:44;21.57;;;10.50;;
17261;SDS011;9873;52.236;21.002;2024-01-30T03:17:55;22.70;;;11.83;;
17261;SDS011;9873;52.236;21.002;2024-01-30T03:28:04;28.67;;;12.03;;
17261;SDS011;9873;52.236;21.002;2024-01-30T03:38:15;27.10;;;12.30;;
17261;SDS011;9873;52.236;21.002;2024-01-30T03:48:23;23.47;;;11.67;;
17261;SDS011;9873;52.236;21.002;2024-01-30T03:58:28;21.37;;;11.33;;
17261;SDS011;9873;52.236;21.002;2024-01-30T04:08:33;19.07;;;8.97;;
17261;SDS011;9873;52.236;21.002;2024-01-30T04:18:37;26.90;;;13.43;;
17261;SDS011;9873;52.236;21.002;2024-01-30T04:28:45;24.93;;;12.10;;
17261;SDS011;9873;52.236;21.002;2024-01-30T04:38:48;20.30;;;10.97;;
17261;SDS011;9873;52.236;21.002;2024-01-30T04:48:54;24.57;;;11.27;;
17261;SDS011;9873;52.236;21.002;2024-01-30T04:58:58;22.97;;;11.77;;
17261;SDS011;9873;52.236;21.002;2024-01-30T05:09:02;21.67;;;11.60;;
17261;SDS011;9873;52.236;21.002;2024-01-30T05:19:10;26.27;;;12.93;;
17261;SDS011;9873;52.236;21.002;2024-01-30T05:29:18;25.93;;;12.00;;
17261;SDS011;9873;52.236;21.002;2024-01-30T05:39:21;31.70;;;12.70;;
17261;SDS011;9873;52.236;21.002;2024-01-30T05:49:23;24.40;;;12.33;;
17261;SDS011;9873;52.236;21.002;2024-01-30T05:59:29;27.20;;;13.77;;
17261;SDS011;9873;52.236;21.002;2024-01-30T06:09:31;22.03;;;11.83;;
17261;SDS011;9873;52.236;21.002;2024-01-30T06:19:37;27.03;;;17.07;;
17261;SDS011;9873;52.236;21.002;2024-01-30T06:29:47;24.23;;;12.13;;
17261;SDS011;9873;52.236;21.002;2024-01-30T06:39:54;24.33;;;13.00;;
17261;SDS011;9873;52.236;21.002;2024-01-30T06:49:59;22.93;;;11.90;;
17261;SDS011;9873;52.236;21.002;2024-01-30T07:00:09;23.33;;;12.63;;
17261;SDS011;9873;52.236;21.002;2024-01-30T07:10:13;20.93;;;11.73;;
17261;SDS011;9873;52.236;21.002;2024-01-30T07:20:21;23.90;;;12.43;;
17261;SDS011;9873;52.236;21.002;2024-01-30T07:30:26;25.90;;;12.40;;
17261;SDS011;9873;52.236;21.002;2024-01-30T07:40:31;19.63;;;11.27;;
17261;SDS011;9873;52.236;21.002;2024-01-30T07:50:35;21.17;;;11.80;;
17261;SDS011;9873;52.236;21.002;2024-01-30T08:00:42;24.67;;;12.83;;
17261;SDS011;9873;52.236;21.002;2024-01-30T08:10:48;22.03;;;11.80;;
17261;SDS011;9873;52.236;21.002;2024-01-30T08:20:55;23.37;;;13.30;;
17261;SDS011;9873;52.236;21.002;2024-01-30T08:30:58;22.87;;;12.37;;
17261;SDS011;9873;52.236;21.002;2024-01-30T08:41:00;22.17;;;12.97;;
17261;SDS011;9873;52.236;21.002;2024-01-30T08:51:03;24.17;;;12.17;;
17261;SDS011;9873;52.236;21.002;2024-01-30T09:01:10;22.37;;;12.37;;
17261;SDS011;9873;52.236;21.002;2024-01-30T09:11:13;21.33;;;11.30;;
17261;SDS011;9873;52.236;21.002;2024-01-30T09:43:05;20.93;;;10.90;;
17261;SDS011;9873;52.236;21.002;2024-01-30T09:53:08;19.27;;;10.30;;
17261;SDS011;9873;52.236;21.002;2024-01-30T10:03:17;17.67;;;10.10;;
17261;SDS011;9873;52.236;21.002;2024-01-30T10:13:23;16.23;;;8.97;;
17261;SDS011;9873;52.236;21.002;2024-01-30T10:23:28;21.23;;;10.03;;
17261;SDS011;9873;52.236;21.002;2024-01-30T10:33:38;18.73;;;10.47;;
17261;SDS011;9873;52.236;21.002;2024-01-30T10:43:42;18.37;;;9.30;;
17261;SDS011;9873;52.236;21.002;2024-01-30T10:53:57;20.90;;;9.63;;
17261;SDS011;9873;52.236;21.002;2024-01-30T11:04:00;18.17;;;10.30;;
17261;SDS011;9873;52.236;21.002;2024-01-30T11:14:02;14.17;;;9.23;;
17261;SDS011;9873;52.236;21.002;2024-01-30T11:24:07;19.73;;;10.67;;
17261;SDS011;9873;52.236;21.002;2024-01-30T11:34:10;26.10;;;11.03;;
17261;SDS011;9873;52.236;21.002;2024-01-30T11:44:13;20.60;;;9.90;;
17261;SDS011;9873;52.236;21.002;2024-01-30T11:54:17;17.00;;;10.40;;
17261;SDS011;9873;52.236;21.002;2024-01-30T12:04:27;17.67;;;9.43;;
17261;SDS011;9873;52.236;21.002;2024-01-30T12:14:34;15.63;;;8.90;;
17261;SDS011;9873;52.236;21.002;2024-01-30T12:24:48;17.70;;;10.57;;
17261;SDS011;9873;52.236;21.002;2024-01-30T12:34:59;21.97;;;10.00;;
17261;SDS011;9873;52.236;21.002;2024-01-30T12:45:05;18.90;;;8.97;;
17261;SDS011;9873;52.236;21.002;2024-01-30T12:55:10;17.87;;;9.10;;
17261;SDS011;9873;52.236;21.002;2024-01-30T13:05:16;19.27;;;9.50;;
17261;SDS011;9873;52.236;21.002;2024-01-30T13:15:23;16.60;;;10.07;;
17261;SDS011;9873;52.236;21.002;2024-01-30T13:25:25;19.47;;;10.37;;
17261;SDS011;9873;52.236;21.002;2024-01-30T13:35:30;15.98;;;8.80;;
17261;SDS011;9873;52.236;21.002;2024-01-30T13:45:37;16.93;;;9.10;;
17261;SDS011;9873;52.236;21.002;2024-01-30T13:55:41;16.07;;;9.10;;
17261;SDS011;9873;52.236;21.002;2024-01-30T14:05:46;15.57;;;9.43;;
17261;SDS011;9873;52.236;21.002;2024-01-30T14:15:50;19.85;;;9.52;;
17261;SDS011;9873;52.236;21.002;2024-01-30T14:25:53;18.27;;;9.97;;
17261;SDS011;9873;52.236;21.002;2024-01-30T14:35:58;17.50;;;9.93;;
17261;SDS011;9873;52.236;21.002;2024-01-30T14:46:01;17.00;;;10.07;;
17261;SDS011;9873;52.236;21.002;2024-01-30T14:56:04;19.43;;;10.77;;
17261;SDS011;9873;52.236;21.002;2024-01-30T15:06:07;18.93;;;10.63;;
17261;SDS011;9873;52.236;21.002;2024-01-30T15:16:12;17.50;;;9.53;;
17261;SDS011;9873;52.236;21.002;2024-01-30T15:26:19;20.70;;;9.93;;
17261;SDS011;9873;52.236;21.002;2024-01-30T15:36:21;19.23;;;10.60;;
17261;SDS011;9873;52.236;21.002;2024-01-30T15:46:23;16.43;;;9.20;;
17261;SDS011;9873;52.236;21.002;2024-01-30T15:56:27;17.80;;;8.47;;
17261;SDS011;9873;52.236;21.002;2024-01-30T16:06:30;14.73;;;9.23;;
17261;SDS011;9873;52.236;21.002;2024-01-30T16:16:34;15.17;;;9.33;;
17261;SDS011;9873;52.236;21.002;2024-01-30T16:26:46;22.60;;;9.50;;
17261;SDS011;9873;52.236;21.002;2024-01-30T16:36:51;15.97;;;9.17;;
17261;SDS011;9873;52.236;21.002;2024-01-30T16:46:59;15.23;;;8.93;;
17261;SDS011;9873;52.236;21.002;2024-01-30T16:57:06;18.20;;;9.23;;
17261;SDS011;9873;52.236;21.002;2024-01-30T17:07:08;15.80;;;7.80;;
17261;SDS011;9873;52.236;21.002;2024-01-30T17:17:13;15.50;;;8.67;;
17261;SDS011;9873;52.236;21.002;2024-01-30T17:27:19;15.87;;;9.03;;
17261;SDS011;9873;52.236;21.002;2024-01-30T17:37:25;17.63;;;9.00;;
17261;SDS011;9873;52.236;21.002;2024-01-30T17:47:30;15.10;;;8.70;;
17261;SDS011;9873;52.236;21.002;2024-01-30T17:57:34;20.70;;;10.07;;
17261;SDS011;9873;52.236;21.002;2024-01-30T18:07:39;17.97;;;8.40;;
17261;SDS011;9873;52.236;21.002;2024-01-30T18:17:42;19.07;;;10.73;;
17261;SDS011;9873;52.236;21.002;2024-01-30T18:27:44;20.40;;;11.60;;
17261;SDS011;9873;52.236;21.002;2024-01-30T18:37:48;20.63;;;12.00;;
17261;SDS011;9873;52.236;21.002;2024-01-30T18:47:56;24.33;;;12.70;;
17261;SDS011;9873;52.236;21.002;2024-01-30T18:58:06;27.77;;;13.63;;
17261;SDS011;9873;52.236;21.002;2024-01-30T19:08:13;12.27;;;6.83;;
17261;SDS011;9873;52.236;21.002;2024-01-30T19:18:18;24.80;;;12.20;;
17261;SDS011;9873;52.236;21.002;2024-01-30T19:28:27;21.50;;;11.80;;
17261;SDS011;9873;52.236;21.002;2024-01-30T19:38:34;21.63;;;9.97;;
17261;SDS011;9873;52.236;21.002;2024-01-30T19:48:41;23.57;;;12.10;;
17261;SDS011;9873;52.236;21.002;2024-01-30T19:58:44;18.33;;;10.47;;
17261;SDS011;9873;52.236;21.002;2024-01-30T20:08:55;25.80;;;11.97;;
17261;SDS011;9873;52.236;21.002;2024-01-30T20:19:07;21.40;;;12.90;;
17261;SDS011;9873;52.236;21.002;2024-01-30T20:29:13;26.20;;;13.10;;
17261;SDS011;9873;52.236;21.002;2024-01-30T20:39:18;25.90;;;13.63;;
17261;SDS011;9873;52.236;21.002;2024-01-30T20:49:27;24.87;;;12.00;;
17261;SDS011;9873;52.236;21.002;2024-01-30T20:59:32;25.03;;;13.40;;
17261;SDS011;9873;52.236;21.002;2024-01-30T21:09:39;23.90;;;13.43;;
17261;SDS011;9873;52.236;21.002;2024-01-30T21:19:44;24.77;;;13.20;;
17261;SDS011;9873;52.236;21.002;2024-01-30T21:29:53;23.57;;;13.73;;
17261;SDS011;9873;52.236;21.002;2024-01-30T21:39:57;21.97;;;13.27;;
17261;SDS011;9873;52.236;21.002;2024-01-30T21:50:04;25.93;;;12.93;;
17261;SDS011;9873;52.236;21.002;2024-01-30T22:00:10;19.60;;;11.27;;
17261;SDS011;9873;52.236;21.002;2024-01-30T22:10:12;23.47;;;12.50;;
17261;SDS011;9873;52.236;21.002;2024-01-30T22:20:15;24.03;;;11.07;;
17261;SDS011;9873;52.236;21.002;2024-01-30T22:30:19;22.23;;;11.43;;
17261;SDS011;9873;52.236;21.002;2024-01-30T22:40:23;23.43;;;11.90;;
17261;SDS011;9873;52.236;21.002;2024-01-30T22:50:31;20.47;;;9.97;;
17261;SDS011;9873;52.236;21.002;2024-01-30T23:00:33;24.03;;;12.10;;
17261;SDS011;9873;52.236;21.002;2024-01-30T23:10:39;20.27;;;11.73;;
17261;SDS011;9873;52.236;21.002;2024-01-30T23:20:42;19.67;;;10.80;;
17261;SDS011;9873;52.236;21.002;2024-01-30T23:30:49;22.47;;;10.10;;
17261;SDS011;9873;52.236;21.002;2024-01-30T23:40:58;20.43;;;10.73;;
17261;SDS011;9873;52.236;21.002;2024-01-30T23:51:05;21.83;;;10.57;;
